PWSweather.com
Personal Weather Stations
Station Observations
KNHRINDG3
Converse Meadow Pond, Rindge, NH 03461

Converse Meadow PondRindge, NH 03461

Lat: 42.74, Lon: -71.98

Elevation: 1060

Station Type: Davis Vantage Pro 2

http://nhwoodworker.com/weather/index.php

High Low Average
Temperature 42.8°F6.0°C 28.3°F-2.1°C 36.0°F2.2°C
Dew Point 28.9°F-1.7°C 23.0°F-5.0°C 25.6°F-3.6°C
Winds 5.8 mph 9.3 kmh Calm Calm 2.0 mph SW3.2 kmh SW
Wind Gusts 12.7 mph20.4 kmh -- 4.0 mph6.4 kmh
Humidity 92% 48% 67%
Pressure 29.80 in1009.1 mb 29.68 in1005.1 mb -
Precipitation 0.00 in0.0 mm - -
Hour Temp Dew Point Humidity Winds Wind Gusts Pressure Precip Precip Rate Daily Precip Total
12:00 AM 29.4°F-1.4°C 26.0°F-3.3°C 87% Calm Calm -- 29.68 in1005.1 mb - 0.00 in0.0 mm 0.00 in0.0 mm
12:10 AM 29.3°F-1.5°C 25.9°F-3.4°C 87% Calm Calm -- 29.69 in1005.4 mb - 0.00 in0.0 mm 0.00 in0.0 mm
12:20 AM 29.3°F-1.5°C 26.2°F-3.2°C 88% Calm Calm 1.2 mph1.9 kmh 29.69 in1005.4 mb - 0.00 in0.0 mm 0.00 in0.0 mm
12:30 AM 29.4°F-1.4°C 26.3°F-3.2°C 88% Calm Calm -- 29.68 in1005.1 mb - 0.00 in0.0 mm 0.00 in0.0 mm
12:40 AM 29.3°F-1.5°C 26.2°F-3.2°C 88% Calm Calm -- 29.68 in1005.1 mb - 0.00 in0.0 mm 0.00 in0.0 mm
12:50 AM 29.1°F-1.6°C 26.0°F-3.3°C 88% Calm Calm -- 29.68 in1005.1 mb - 0.00 in0.0 mm 0.00 in0.0 mm
01:00 AM 29.0°F-1.7°C 26.2°F-3.2°C 89% Calm Calm -- 29.69 in1005.4 mb - 0.00 in0.0 mm 0.00 in0.0 mm
01:11 AM 28.8°F-1.8°C 26.0°F-3.3°C 89% Calm Calm -- 29.68 in1005.1 mb - 0.00 in0.0 mm 0.00 in0.0 mm
01:20 AM 28.5°F-1.9°C 25.7°F-3.5°C 89% Calm Calm -- 29.68 in1005.1 mb - 0.00 in0.0 mm 0.00 in0.0 mm
01:30 AM 28.5°F-1.9°C 25.9°F-3.4°C 90% Calm Calm -- 29.68 in1005.1 mb - 0.00 in0.0 mm 0.00 in0.0 mm
01:40 AM 28.5°F-1.9°C 25.9°F-3.4°C 90% Calm Calm -- 29.68 in1005.1 mb - 0.00 in0.0 mm 0.00 in0.0 mm
01:50 AM 28.5°F-1.9°C 25.9°F-3.4°C 90% Calm Calm -- 29.68 in1005.1 mb - 0.00 in0.0 mm 0.00 in0.0 mm
02:00 AM 28.4°F-2.0°C 25.8°F-3.4°C 90% Calm Calm -- 29.68 in1005.1 mb - 0.00 in0.0 mm 0.00 in0.0 mm
02:10 AM 28.3°F-2.1°C 26.1°F-3.3°C 91% Calm Calm -- 29.68 in1005.1 mb - 0.00 in0.0 mm 0.00 in0.0 mm
02:20 AM 28.4°F-2.0°C 26.4°F-3.1°C 92% Calm Calm -- 29.68 in1005.1 mb - 0.00 in0.0 mm 0.00 in0.0 mm
02:30 AM 28.6°F-1.9°C 26.6°F-3.0°C 92% Calm Calm -- 29.68 in1005.1 mb - 0.00 in0.0 mm 0.00 in0.0 mm
02:40 AM 28.9°F-1.7°C 26.9°F-2.8°C 92% Calm Calm -- 29.68 in1005.1 mb - 0.00 in0.0 mm 0.00 in0.0 mm
02:50 AM 29.3°F-1.5°C 27.3°F-2.6°C 92% Calm Calm -- 29.68 in1005.1 mb - 0.00 in0.0 mm 0.00 in0.0 mm
03:00 AM 30.0°F-1.1°C 27.9°F-2.3°C 92% Calm Calm -- 29.69 in1005.4 mb - 0.00 in0.0 mm 0.00 in0.0 mm
03:10 AM 30.5°F-0.8°C 28.2°F-2.1°C 91% Calm Calm 2.3 mph3.7 kmh 29.69 in1005.4 mb - 0.00 in0.0 mm 0.00 in0.0 mm
03:20 AM 31.0°F-0.6°C 28.4°F-2.0°C 90% Calm Calm -- 29.69 in1005.4 mb - 0.00 in0.0 mm 0.00 in0.0 mm
03:30 AM 31.2°F-0.4°C 28.4°F-2.0°C 89% Calm Calm -- 29.69 in1005.4 mb - 0.00 in0.0 mm 0.00 in0.0 mm
03:40 AM 31.4°F-0.3°C 28.3°F-2.1°C 88% Calm Calm -- 29.70 in1005.8 mb - 0.00 in0.0 mm 0.00 in0.0 mm
03:50 AM 31.7°F-0.2°C 28.6°F-1.9°C 88% Calm Calm 1.2 mph1.9 kmh 29.70 in1005.8 mb - 0.00 in0.0 mm 0.00 in0.0 mm
04:00 AM 32.0°F0.0°C 28.9°F-1.7°C 88% Calm Calm -- 29.70 in1005.8 mb - 0.00 in0.0 mm 0.00 in0.0 mm
04:10 AM 32.3°F0.2°C 28.3°F-2.1°C 85% Calm Calm 1.2 mph1.9 kmh 29.69 in1005.4 mb - 0.00 in0.0 mm 0.00 in0.0 mm
04:20 AM 32.7°F0.4°C 28.1°F-2.2°C 83% 1.2 mph NNW1.9 kmh NNW 3.5 mph5.6 kmh 29.70 in1005.8 mb - 0.00 in0.0 mm 0.00 in0.0 mm
04:30 AM 32.9°F0.5°C 27.7°F-2.4°C 81% 2.3 mph NW3.7 kmh NW 3.5 mph5.6 kmh 29.69 in1005.4 mb - 0.00 in0.0 mm 0.00 in0.0 mm
04:40 AM 33.0°F0.6°C 27.5°F-2.5°C 80% 1.2 mph NW1.9 kmh NW 3.5 mph5.6 kmh 29.70 in1005.8 mb - 0.00 in0.0 mm 0.00 in0.0 mm
04:50 AM 33.0°F0.6°C 27.2°F-2.7°C 79% Calm Calm 1.2 mph1.9 kmh 29.69 in1005.4 mb - 0.00 in0.0 mm 0.00 in0.0 mm
05:00 AM 32.8°F0.4°C 27.0°F-2.8°C 79% 1.2 mph NW1.9 kmh NW 1.2 mph1.9 kmh 29.69 in1005.4 mb - 0.00 in0.0 mm 0.00 in0.0 mm
05:10 AM 32.7°F0.4°C 26.9°F-2.8°C 79% 2.3 mph NW3.7 kmh NW 4.6 mph7.4 kmh 29.70 in1005.8 mb - 0.00 in0.0 mm 0.00 in0.0 mm
05:20 AM 32.7°F0.4°C 26.6°F-3.0°C 78% 1.2 mph SW1.9 kmh SW 3.5 mph5.6 kmh 29.70 in1005.8 mb - 0.00 in0.0 mm 0.00 in0.0 mm
05:30 AM 32.8°F0.4°C 26.7°F-2.9°C 78% 2.3 mph WSW3.7 kmh WSW 3.5 mph5.6 kmh 29.70 in1005.8 mb - 0.00 in0.0 mm 0.00 in0.0 mm
05:40 AM 32.9°F0.5°C 26.8°F-2.9°C 78% Calm Calm 1.2 mph1.9 kmh 29.70 in1005.8 mb - 0.00 in0.0 mm 0.00 in0.0 mm
05:50 AM 32.9°F0.5°C 26.8°F-2.9°C 78% 1.2 mph WSW1.9 kmh WSW 3.5 mph5.6 kmh 29.71 in1006.1 mb - 0.00 in0.0 mm 0.00 in0.0 mm
06:00 AM 33.0°F0.6°C 26.6°F-3.0°C 77% 1.2 mph S1.9 kmh S 3.5 mph5.6 kmh 29.71 in1006.1 mb - 0.00 in0.0 mm 0.00 in0.0 mm
06:10 AM 33.1°F0.6°C 26.7°F-2.9°C 77% 3.5 mph WNW5.6 kmh WNW 6.9 mph11.1 kmh 29.71 in1006.1 mb - 0.00 in0.0 mm 0.00 in0.0 mm
06:20 AM 33.2°F0.7°C 26.8°F-2.9°C 77% Calm Calm 2.3 mph3.7 kmh 29.72 in1006.4 mb - 0.00 in0.0 mm 0.00 in0.0 mm
06:30 AM 33.3°F0.7°C 26.5°F-3.1°C 76% 1.2 mph WSW1.9 kmh WSW 2.3 mph3.7 kmh 29.72 in1006.4 mb - 0.00 in0.0 mm 0.00 in0.0 mm
06:40 AM 33.3°F0.7°C 26.2°F-3.2°C 75% 3.5 mph WSW5.6 kmh WSW 4.6 mph7.4 kmh 29.73 in1006.8 mb - 0.00 in0.0 mm 0.00 in0.0 mm
06:50 AM 33.3°F0.7°C 26.2°F-3.2°C 75% 3.5 mph NW5.6 kmh NW 6.9 mph11.1 kmh 29.73 in1006.8 mb - 0.00 in0.0 mm 0.00 in0.0 mm
07:00 AM 33.3°F0.7°C 26.2°F-3.2°C 75% 2.3 mph NW3.7 kmh NW 3.5 mph5.6 kmh 29.73 in1006.8 mb - 0.00 in0.0 mm 0.00 in0.0 mm
07:10 AM 33.4°F0.8°C 26.0°F-3.3°C 74% 1.2 mph S1.9 kmh S 2.3 mph3.7 kmh 29.73 in1006.8 mb - 0.00 in0.0 mm 0.00 in0.0 mm
07:20 AM 33.6°F0.9°C 26.2°F-3.2°C 74% 1.2 mph SW1.9 kmh SW 1.2 mph1.9 kmh 29.73 in1006.8 mb - 0.00 in0.0 mm 0.00 in0.0 mm
07:30 AM 33.7°F0.9°C 26.3°F-3.2°C 74% 1.2 mph W1.9 kmh W 4.6 mph7.4 kmh 29.73 in1006.8 mb - 0.00 in0.0 mm 0.00 in0.0 mm
07:40 AM 33.8°F1.0°C 26.4°F-3.1°C 74% 4.6 mph N7.4 kmh N 11.5 mph18.5 kmh 29.73 in1006.8 mb - 0.00 in0.0 mm 0.00 in0.0 mm
07:50 AM 34.0°F1.1°C 26.3°F-3.2°C 73% 2.3 mph N3.7 kmh N 4.6 mph7.4 kmh 29.73 in1006.8 mb - 0.00 in0.0 mm 0.00 in0.0 mm
08:00 AM 34.1°F1.2°C 26.0°F-3.3°C 72% 2.3 mph SSW3.7 kmh SSW 3.5 mph5.6 kmh 29.73 in1006.8 mb - 0.00 in0.0 mm 0.00 in0.0 mm
08:10 AM 34.3°F1.3°C 26.6°F-3.0°C 73% 2.3 mph ESE3.7 kmh ESE 3.5 mph5.6 kmh 29.73 in1006.8 mb - 0.00 in0.0 mm 0.00 in0.0 mm
08:20 AM 34.3°F1.3°C 26.2°F-3.2°C 72% 2.3 mph NE3.7 kmh NE 3.5 mph5.6 kmh 29.73 in1006.8 mb - 0.00 in0.0 mm 0.00 in0.0 mm
08:30 AM 34.4°F1.3°C 26.3°F-3.2°C 72% 2.3 mph SW3.7 kmh SW 6.9 mph11.1 kmh 29.74 in1007.1 mb - 0.00 in0.0 mm 0.00 in0.0 mm
08:40 AM 34.7°F1.5°C 26.6°F-3.0°C 72% 2.3 mph N3.7 kmh N 1.2 mph1.9 kmh 29.73 in1006.8 mb - 0.00 in0.0 mm 0.00 in0.0 mm
08:50 AM 35.0°F1.7°C 26.5°F-3.1°C 71% 1.2 mph NE1.9 kmh NE 2.3 mph3.7 kmh 29.74 in1007.1 mb - 0.00 in0.0 mm 0.00 in0.0 mm
09:00 AM 35.1°F1.7°C 26.6°F-3.0°C 71% Calm Calm 1.2 mph1.9 kmh 29.74 in1007.1 mb - 0.00 in0.0 mm 0.00 in0.0 mm
09:10 AM 35.2°F1.8°C 26.4°F-3.1°C 70% 1.2 mph S1.9 kmh S 5.8 mph9.3 kmh 29.74 in1007.1 mb - 0.00 in0.0 mm 0.00 in0.0 mm
09:20 AM 35.3°F1.8°C 26.5°F-3.1°C 70% 1.2 mph S1.9 kmh S 3.5 mph5.6 kmh 29.74 in1007.1 mb - 0.00 in0.0 mm 0.00 in0.0 mm
09:30 AM 35.6°F2.0°C 26.4°F-3.1°C 69% 3.5 mph NE5.6 kmh NE 8.1 mph13.0 kmh 29.74 in1007.1 mb - 0.00 in0.0 mm 0.00 in0.0 mm
09:40 AM 35.7°F2.1°C 26.2°F-3.2°C 68% 3.5 mph WSW5.6 kmh WSW 9.2 mph14.8 kmh 29.74 in1007.1 mb - 0.00 in0.0 mm 0.00 in0.0 mm
09:50 AM 35.9°F2.2°C 26.4°F-3.1°C 68% 3.5 mph S5.6 kmh S 3.5 mph5.6 kmh 29.74 in1007.1 mb - 0.00 in0.0 mm 0.00 in0.0 mm
10:00 AM 36.0°F2.2°C 26.5°F-3.1°C 68% 3.5 mph N5.6 kmh N 6.9 mph11.1 kmh 29.74 in1007.1 mb - 0.00 in0.0 mm 0.00 in0.0 mm
10:10 AM 36.0°F2.2°C 26.5°F-3.1°C 68% 3.5 mph ENE5.6 kmh ENE 8.1 mph13.0 kmh 29.74 in1007.1 mb - 0.00 in0.0 mm 0.00 in0.0 mm
10:20 AM 36.2°F2.3°C 26.6°F-3.0°C 68% 2.3 mph NW3.7 kmh NW 3.5 mph5.6 kmh 29.74 in1007.1 mb - 0.00 in0.0 mm 0.00 in0.0 mm
10:30 AM 36.8°F2.7°C 26.9°F-2.8°C 67% 2.3 mph E3.7 kmh E 4.6 mph7.4 kmh 29.74 in1007.1 mb - 0.00 in0.0 mm 0.00 in0.0 mm
10:40 AM 36.8°F2.7°C 26.9°F-2.8°C 67% 2.3 mph E3.7 kmh E 4.6 mph7.4 kmh 29.74 in1007.1 mb - 0.00 in0.0 mm 0.00 in0.0 mm
10:50 AM 37.0°F2.8°C 26.3°F-3.2°C 65% 3.5 mph NNW5.6 kmh NNW 5.8 mph9.3 kmh 29.74 in1007.1 mb - 0.00 in0.0 mm 0.00 in0.0 mm
11:00 AM 37.1°F2.8°C 26.8°F-2.9°C 66% 2.3 mph NNE3.7 kmh NNE 3.5 mph5.6 kmh 29.74 in1007.1 mb - 0.00 in0.0 mm 0.00 in0.0 mm
11:10 AM 37.6°F3.1°C 26.5°F-3.1°C 64% 3.5 mph NNW5.6 kmh NNW 8.1 mph13.0 kmh 29.74 in1007.1 mb - 0.00 in0.0 mm 0.00 in0.0 mm
11:20 AM 37.5°F3.1°C 25.7°F-3.5°C 62% 3.5 mph NW5.6 kmh NW 4.6 mph7.4 kmh 29.74 in1007.1 mb - 0.00 in0.0 mm 0.00 in0.0 mm
11:30 AM 37.3°F2.9°C 25.8°F-3.4°C 63% 2.3 mph NE3.7 kmh NE 3.5 mph5.6 kmh 29.74 in1007.1 mb - 0.00 in0.0 mm 0.00 in0.0 mm
11:40 AM 37.3°F2.9°C 26.2°F-3.2°C 64% 2.3 mph NE3.7 kmh NE 3.5 mph5.6 kmh 29.74 in1007.1 mb - 0.00 in0.0 mm 0.00 in0.0 mm
11:50 AM 38.0°F3.3°C 26.1°F-3.3°C 62% 3.5 mph WSW5.6 kmh WSW 6.9 mph11.1 kmh 29.73 in1006.8 mb - 0.00 in0.0 mm 0.00 in0.0 mm
12:00 PM 38.3°F3.5°C 25.6°F-3.6°C 60% 4.6 mph N7.4 kmh N 10.4 mph16.7 kmh 29.73 in1006.8 mb - 0.00 in0.0 mm 0.00 in0.0 mm
12:10 PM 38.4°F3.6°C 26.1°F-3.3°C 61% 4.6 mph N7.4 kmh N 8.1 mph13.0 kmh 29.73 in1006.8 mb - 0.00 in0.0 mm 0.00 in0.0 mm
12:20 PM 38.8°F3.8°C 25.7°F-3.5°C 59% 2.3 mph SSW3.7 kmh SSW 8.1 mph13.0 kmh 29.73 in1006.8 mb - 0.00 in0.0 mm 0.00 in0.0 mm
12:30 PM 38.9°F3.8°C 25.8°F-3.4°C 59% 3.5 mph NW5.6 kmh NW 5.8 mph9.3 kmh 29.73 in1006.8 mb - 0.00 in0.0 mm 0.00 in0.0 mm
12:40 PM 39.0°F3.9°C 25.5°F-3.6°C 58% 3.5 mph SW5.6 kmh SW 3.5 mph5.6 kmh 29.73 in1006.8 mb - 0.00 in0.0 mm 0.00 in0.0 mm
12:50 PM 39.1°F3.9°C 26.0°F-3.3°C 59% 2.3 mph SE3.7 kmh SE 4.6 mph7.4 kmh 29.73 in1006.8 mb - 0.00 in0.0 mm 0.00 in0.0 mm
01:00 PM 39.5°F4.2°C 25.9°F-3.4°C 58% 2.3 mph NW3.7 kmh NW 4.6 mph7.4 kmh 29.73 in1006.8 mb - 0.00 in0.0 mm 0.00 in0.0 mm
01:10 PM 40.1°F4.5°C 26.9°F-2.8°C 59% 1.2 mph NE1.9 kmh NE 4.6 mph7.4 kmh 29.73 in1006.8 mb - 0.00 in0.0 mm 0.00 in0.0 mm
01:20 PM 40.3°F4.6°C 26.7°F-2.9°C 58% 3.5 mph NW5.6 kmh NW 9.2 mph14.8 kmh 29.73 in1006.8 mb - 0.00 in0.0 mm 0.00 in0.0 mm
01:30 PM 40.2°F4.6°C 25.8°F-3.4°C 56% 3.5 mph WSW5.6 kmh WSW 9.2 mph14.8 kmh 29.73 in1006.8 mb - 0.00 in0.0 mm 0.00 in0.0 mm
01:40 PM 40.6°F4.8°C 26.1°F-3.3°C 56% 2.3 mph WSW3.7 kmh WSW 4.6 mph7.4 kmh 29.73 in1006.8 mb - 0.00 in0.0 mm 0.00 in0.0 mm
01:50 PM 40.4°F4.7°C 25.5°F-3.6°C 55% 3.5 mph NW5.6 kmh NW 5.8 mph9.3 kmh 29.73 in1006.8 mb - 0.00 in0.0 mm 0.00 in0.0 mm
02:00 PM 40.4°F4.7°C 25.5°F-3.6°C 55% 3.5 mph SSW5.6 kmh SSW 5.8 mph9.3 kmh 29.73 in1006.8 mb - 0.00 in0.0 mm 0.00 in0.0 mm
02:10 PM 41.1°F5.1°C 26.1°F-3.3°C 55% 3.5 mph S5.6 kmh S 3.5 mph5.6 kmh 29.72 in1006.4 mb - 0.00 in0.0 mm 0.00 in0.0 mm
02:20 PM 40.8°F4.9°C 25.0°F-3.9°C 53% 3.5 mph WSW5.6 kmh WSW 3.5 mph5.6 kmh 29.72 in1006.4 mb - 0.00 in0.0 mm 0.00 in0.0 mm
02:30 PM 40.4°F4.7°C 25.5°F-3.6°C 55% 3.5 mph NW5.6 kmh NW 6.9 mph11.1 kmh 29.72 in1006.4 mb - 0.00 in0.0 mm 0.00 in0.0 mm
02:40 PM 40.3°F4.6°C 24.9°F-3.9°C 54% 3.5 mph N5.6 kmh N 3.5 mph5.6 kmh 29.72 in1006.4 mb - 0.00 in0.0 mm 0.00 in0.0 mm
02:50 PM 40.5°F4.7°C 25.1°F-3.8°C 54% 2.3 mph NW3.7 kmh NW 6.9 mph11.1 kmh 29.72 in1006.4 mb - 0.00 in0.0 mm 0.00 in0.0 mm
03:00 PM 40.5°F4.7°C 24.7°F-4.1°C 53% 4.6 mph WNW7.4 kmh WNW 4.6 mph7.4 kmh 29.72 in1006.4 mb - 0.00 in0.0 mm 0.00 in0.0 mm
03:10 PM 41.0°F5.0°C 25.1°F-3.8°C 53% 3.5 mph NNW5.6 kmh NNW 5.8 mph9.3 kmh 29.72 in1006.4 mb - 0.00 in0.0 mm 0.00 in0.0 mm
03:20 PM 40.7°F4.8°C 24.0°F-4.4°C 51% 2.3 mph NNW3.7 kmh NNW 4.6 mph7.4 kmh 29.72 in1006.4 mb - 0.00 in0.0 mm 0.00 in0.0 mm
03:30 PM 40.9°F4.9°C 24.1°F-4.4°C 51% 5.8 mph N9.3 kmh N 11.5 mph18.5 kmh 29.72 in1006.4 mb - 0.00 in0.0 mm 0.00 in0.0 mm
03:40 PM 41.1°F5.1°C 24.3°F-4.3°C 51% 4.6 mph W7.4 kmh W 11.5 mph18.5 kmh 29.72 in1006.4 mb - 0.00 in0.0 mm 0.00 in0.0 mm
03:50 PM 41.6°F5.3°C 24.3°F-4.3°C 50% 3.5 mph WNW5.6 kmh WNW 11.5 mph18.5 kmh 29.72 in1006.4 mb - 0.00 in0.0 mm 0.00 in0.0 mm
04:00 PM 42.3°F5.7°C 24.5°F-4.2°C 49% 3.5 mph N5.6 kmh N 3.5 mph5.6 kmh 29.72 in1006.4 mb - 0.00 in0.0 mm 0.00 in0.0 mm
04:10 PM 42.8°F6.0°C 24.4°F-4.2°C 48% 3.5 mph NW5.6 kmh NW 5.8 mph9.3 kmh 29.73 in1006.8 mb - 0.00 in0.0 mm 0.00 in0.0 mm
04:20 PM 41.8°F5.4°C 23.5°F-4.7°C 48% 4.6 mph NW7.4 kmh NW 6.9 mph11.1 kmh 29.73 in1006.8 mb - 0.00 in0.0 mm 0.00 in0.0 mm
04:30 PM 42.1°F5.6°C 24.7°F-4.1°C 50% 2.3 mph WNW3.7 kmh WNW 4.6 mph7.4 kmh 29.73 in1006.8 mb - 0.00 in0.0 mm 0.00 in0.0 mm
04:40 PM 41.2°F5.1°C 24.0°F-4.4°C 50% 4.6 mph N7.4 kmh N 12.7 mph20.4 kmh 29.74 in1007.1 mb - 0.00 in0.0 mm 0.00 in0.0 mm
04:50 PM 41.4°F5.2°C 24.1°F-4.4°C 50% 3.5 mph N5.6 kmh N 4.6 mph7.4 kmh 29.74 in1007.1 mb - 0.00 in0.0 mm 0.00 in0.0 mm
05:00 PM 41.5°F5.3°C 24.7°F-4.1°C 51% 1.2 mph S1.9 kmh S 3.5 mph5.6 kmh 29.74 in1007.1 mb - 0.00 in0.0 mm 0.00 in0.0 mm
05:10 PM 41.2°F5.1°C 24.4°F-4.2°C 51% 2.3 mph WSW3.7 kmh WSW 3.5 mph5.6 kmh 29.74 in1007.1 mb - 0.00 in0.0 mm 0.00 in0.0 mm
05:20 PM 40.7°F4.8°C 24.0°F-4.4°C 51% 2.3 mph W3.7 kmh W 5.8 mph9.3 kmh 29.74 in1007.1 mb - 0.00 in0.0 mm 0.00 in0.0 mm
05:30 PM 40.5°F4.7°C 23.8°F-4.6°C 51% 2.3 mph NNE3.7 kmh NNE 10.4 mph16.7 kmh 29.74 in1007.1 mb - 0.00 in0.0 mm 0.00 in0.0 mm
05:40 PM 40.0°F4.4°C 23.8°F-4.6°C 52% 2.3 mph WNW3.7 kmh WNW 9.2 mph14.8 kmh 29.75 in1007.5 mb - 0.00 in0.0 mm 0.00 in0.0 mm
05:50 PM 39.8°F4.3°C 23.6°F-4.7°C 52% 3.5 mph NE5.6 kmh NE 4.6 mph7.4 kmh 29.75 in1007.5 mb - 0.00 in0.0 mm 0.00 in0.0 mm
06:00 PM 39.7°F4.3°C 23.0°F-5.0°C 51% 2.3 mph NNW3.7 kmh NNW 9.2 mph14.8 kmh 29.75 in1007.5 mb - 0.00 in0.0 mm 0.00 in0.0 mm
06:10 PM 39.6°F4.2°C 23.9°F-4.5°C 53% 2.3 mph NNW3.7 kmh NNW 4.6 mph7.4 kmh 29.75 in1007.5 mb - 0.00 in0.0 mm 0.00 in0.0 mm
06:20 PM 39.4°F4.1°C 23.7°F-4.6°C 53% 1.2 mph WSW1.9 kmh WSW 3.5 mph5.6 kmh 29.75 in1007.5 mb - 0.00 in0.0 mm 0.00 in0.0 mm
06:30 PM 39.2°F4.0°C 23.5°F-4.7°C 53% 1.2 mph WSW1.9 kmh WSW 3.5 mph5.6 kmh 29.76 in1007.8 mb - 0.00 in0.0 mm 0.00 in0.0 mm
06:40 PM 39.0°F3.9°C 23.7°F-4.6°C 54% 2.3 mph NNW3.7 kmh NNW 3.5 mph5.6 kmh 29.76 in1007.8 mb - 0.00 in0.0 mm 0.00 in0.0 mm
06:50 PM 38.9°F3.8°C 24.1°F-4.4°C 55% 1.2 mph SW1.9 kmh SW 2.3 mph3.7 kmh 29.76 in1007.8 mb - 0.00 in0.0 mm 0.00 in0.0 mm
07:00 PM 38.7°F3.7°C 23.5°F-4.7°C 54% 1.2 mph NW1.9 kmh NW 3.5 mph5.6 kmh 29.77 in1008.1 mb - 0.00 in0.0 mm 0.00 in0.0 mm
07:10 PM 38.5°F3.6°C 23.7°F-4.6°C 55% 1.2 mph W1.9 kmh W 9.2 mph14.8 kmh 29.76 in1007.8 mb - 0.00 in0.0 mm 0.00 in0.0 mm
07:20 PM 38.4°F3.6°C 24.1°F-4.4°C 56% Calm Calm 2.3 mph3.7 kmh 29.77 in1008.1 mb - 0.00 in0.0 mm 0.00 in0.0 mm
07:30 PM 38.2°F3.4°C 23.9°F-4.5°C 56% 2.3 mph NNE3.7 kmh NNE 3.5 mph5.6 kmh 29.77 in1008.1 mb - 0.00 in0.0 mm 0.00 in0.0 mm
07:40 PM 38.0°F3.3°C 24.1°F-4.4°C 57% 1.2 mph NW1.9 kmh NW 2.3 mph3.7 kmh 29.78 in1008.5 mb - 0.00 in0.0 mm 0.00 in0.0 mm
07:50 PM 37.9°F3.3°C 24.0°F-4.4°C 57% 2.3 mph NNE3.7 kmh NNE 3.5 mph5.6 kmh 29.78 in1008.5 mb - 0.00 in0.0 mm 0.00 in0.0 mm
08:00 PM 37.8°F3.2°C 24.3°F-4.3°C 58% 2.3 mph SW3.7 kmh SW 3.5 mph5.6 kmh 29.78 in1008.5 mb - 0.00 in0.0 mm 0.00 in0.0 mm
08:10 PM 37.7°F3.2°C 24.2°F-4.3°C 58% 2.3 mph NW3.7 kmh NW 8.1 mph13.0 kmh 29.79 in1008.8 mb - 0.00 in0.0 mm 0.00 in0.0 mm
08:20 PM 37.6°F3.1°C 24.6°F-4.1°C 59% 2.3 mph WSW3.7 kmh WSW 9.2 mph14.8 kmh 29.79 in1008.8 mb - 0.00 in0.0 mm 0.00 in0.0 mm
08:30 PM 37.5°F3.1°C 24.9°F-3.9°C 60% 2.3 mph NNW3.7 kmh NNW 4.6 mph7.4 kmh 29.79 in1008.8 mb - 0.00 in0.0 mm 0.00 in0.0 mm
08:40 PM 37.3°F2.9°C 24.7°F-4.1°C 60% 1.2 mph S1.9 kmh S 2.3 mph3.7 kmh 29.79 in1008.8 mb - 0.00 in0.0 mm 0.00 in0.0 mm
08:50 PM 37.1°F2.8°C 25.3°F-3.7°C 62% 1.2 mph SW1.9 kmh SW 5.8 mph9.3 kmh 29.79 in1008.8 mb - 0.00 in0.0 mm 0.00 in0.0 mm
09:00 PM 37.0°F2.8°C 24.8°F-4.0°C 61% 3.5 mph NW5.6 kmh NW 4.6 mph7.4 kmh 29.80 in1009.1 mb - 0.00 in0.0 mm 0.00 in0.0 mm
09:10 PM 36.8°F2.7°C 25.0°F-3.9°C 62% 1.2 mph N1.9 kmh N 3.5 mph5.6 kmh 29.80 in1009.1 mb - 0.00 in0.0 mm 0.00 in0.0 mm
09:20 PM 36.7°F2.6°C 24.9°F-3.9°C 62% 1.2 mph NW1.9 kmh NW 5.8 mph9.3 kmh 29.80 in1009.1 mb - 0.00 in0.0 mm 0.00 in0.0 mm
09:30 PM 36.6°F2.6°C 25.2°F-3.8°C 63% 2.3 mph N3.7 kmh N 3.5 mph5.6 kmh 29.80 in1009.1 mb - 0.00 in0.0 mm 0.00 in0.0 mm
09:40 PM 36.5°F2.5°C 25.5°F-3.6°C 64% 1.2 mph N1.9 kmh N 4.6 mph7.4 kmh 29.80 in1009.1 mb - 0.00 in0.0 mm 0.00 in0.0 mm
09:50 PM 36.4°F2.4°C 25.4°F-3.7°C 64% 1.2 mph SW1.9 kmh SW 2.3 mph3.7 kmh 29.80 in1009.1 mb - 0.00 in0.0 mm 0.00 in0.0 mm
10:00 PM 36.3°F2.4°C 25.3°F-3.7°C 64% Calm Calm 2.3 mph3.7 kmh 29.80 in1009.1 mb - 0.00 in0.0 mm 0.00 in0.0 mm
10:10 PM 36.2°F2.3°C 25.2°F-3.8°C 64% 1.2 mph NW1.9 kmh NW 1.2 mph1.9 kmh 29.80 in1009.1 mb - 0.00 in0.0 mm 0.00 in0.0 mm
10:20 PM 36.1°F2.3°C 25.1°F-3.8°C 64% Calm Calm 1.2 mph1.9 kmh 29.80 in1009.1 mb - 0.00 in0.0 mm 0.00 in0.0 mm
10:30 PM 35.9°F2.2°C 24.9°F-3.9°C 64% 3.5 mph NW5.6 kmh NW 5.8 mph9.3 kmh 29.80 in1009.1 mb - 0.00 in0.0 mm 0.00 in0.0 mm
10:40 PM 35.8°F2.1°C 24.4°F-4.2°C 63% 2.3 mph S3.7 kmh S 2.3 mph3.7 kmh 29.80 in1009.1 mb - 0.00 in0.0 mm 0.00 in0.0 mm
10:50 PM 35.6°F2.0°C 24.6°F-4.1°C 64% 2.3 mph N3.7 kmh N 4.6 mph7.4 kmh 29.80 in1009.1 mb - 0.00 in0.0 mm 0.00 in0.0 mm
11:00 PM 35.5°F1.9°C 24.5°F-4.2°C 64% 2.3 mph NW3.7 kmh NW 5.8 mph9.3 kmh 29.80 in1009.1 mb - 0.00 in0.0 mm 0.00 in0.0 mm
11:10 PM 35.4°F1.9°C 24.0°F-4.4°C 63% 1.2 mph WSW1.9 kmh WSW 2.3 mph3.7 kmh 29.80 in1009.1 mb - 0.00 in0.0 mm 0.00 in0.0 mm
11:20 PM 35.3°F1.8°C 24.3°F-4.3°C 64% 1.2 mph W1.9 kmh W 5.8 mph9.3 kmh 29.79 in1008.8 mb - 0.00 in0.0 mm 0.00 in0.0 mm
11:30 PM 35.1°F1.7°C 24.2°F-4.3°C 64% 2.3 mph N3.7 kmh N 3.5 mph5.6 kmh 29.79 in1008.8 mb - 0.00 in0.0 mm 0.00 in0.0 mm
11:40 PM 35.1°F1.7°C 24.1°F-4.4°C 64% 1.2 mph N1.9 kmh N 3.5 mph5.6 kmh 29.79 in1008.8 mb - 0.00 in0.0 mm 0.00 in0.0 mm
11:50 PM 35.0°F1.7°C 24.0°F-4.4°C 64% 2.3 mph NNW3.7 kmh NNW 2.3 mph3.7 kmh 29.79 in1008.8 mb - 0.00 in0.0 mm 0.00 in0.0 mm